createdAt,value
2019-05-05T00:02:04.637Z,5.30
2019-05-05T00:04:45.472Z,5.30
2019-05-05T00:07:19.989Z,5.40
2019-05-05T00:09:55.099Z,5.50
2019-05-05T00:12:31.689Z,5.50
2019-05-05T00:15:14.496Z,5.40
2019-05-05T00:17:45.441Z,5.30
2019-05-05T00:20:19.509Z,5.20
2019-05-05T00:22:51.419Z,5.30
2019-05-05T00:25:24.947Z,5.20
2019-05-05T00:27:57.494Z,5.20
2019-05-05T00:30:30.256Z,5.40
2019-05-05T00:33:05.379Z,5.40
2019-05-05T00:35:37.429Z,5.50
2019-05-05T00:38:11.477Z,5.50
2019-05-05T00:40:45.539Z,5.60
2019-05-05T00:43:16.890Z,5.70
2019-05-05T00:45:50.723Z,5.90
2019-05-05T00:48:28.308Z,6.00
2019-05-05T00:51:00.982Z,6.00
2019-05-05T00:53:34.324Z,6.10
2019-05-05T00:56:09.078Z,5.90
2019-05-05T00:58:44.481Z,5.80
2019-05-05T01:01:26.078Z,5.80
2019-05-05T01:03:54.750Z,6.00
2019-05-05T01:06:25.607Z,6.00
2019-05-05T01:08:55.005Z,5.80
2019-05-05T01:11:25.129Z,5.80
2019-05-05T01:13:54.675Z,5.80
2019-05-05T01:16:24.724Z,5.80
2019-05-05T01:18:55.392Z,5.80
2019-05-05T01:21:24.513Z,5.80
2019-05-05T01:23:54.865Z,5.90
2019-05-05T01:26:24.849Z,6.10
2019-05-05T01:28:53.822Z,6.30
2019-05-05T01:31:25.112Z,6.30
2019-05-05T01:34:04.864Z,6.30
2019-05-05T01:36:34.559Z,6.40
2019-05-05T01:39:18.232Z,6.50
2019-05-05T01:41:48.634Z,6.70
2019-05-05T01:44:17.373Z,6.60
2019-05-05T01:46:46.088Z,6.70
2019-05-05T01:49:14.845Z,6.70
2019-05-05T01:51:44.707Z,6.80
2019-05-05T01:54:14.494Z,6.60
2019-05-05T01:56:44.566Z,6.40
2019-05-05T01:59:14.387Z,6.40
2019-05-05T02:01:44.551Z,6.30
2019-05-05T02:04:14.464Z,6.20
2019-05-05T02:06:44.326Z,6.30
2019-05-05T02:09:15.880Z,6.40
2019-05-05T02:11:45.255Z,6.20
2019-05-05T02:14:15.582Z,6.20
2019-05-05T02:16:45.194Z,6.10
2019-05-05T02:19:14.342Z,6.10
2019-05-05T02:21:45.211Z,6.20
2019-05-05T02:24:14.476Z,6.20
2019-05-05T02:26:45.440Z,6.30
2019-05-05T02:29:15.565Z,6.30
2019-05-05T02:32:01.325Z,6.40
2019-05-05T02:34:31.782Z,6.40
2019-05-05T02:37:00.540Z,6.40
2019-05-05T02:39:29.294Z,6.30
2019-05-05T02:41:58.474Z,6.20
2019-05-05T02:44:28.421Z,6.30
2019-05-05T02:47:04.580Z,6.30
2019-05-05T02:49:35.173Z,6.40
2019-05-05T02:52:04.840Z,6.30
2019-05-05T02:54:34.642Z,6.10
2019-05-05T02:57:04.619Z,6.10
2019-05-05T02:59:35.415Z,6.00
2019-05-05T03:02:14.266Z,6.00
2019-05-05T03:04:44.384Z,6.00
2019-05-05T03:07:14.256Z,5.90
2019-05-05T03:09:44.046Z,5.80
2019-05-05T03:12:14.888Z,5.70
2019-05-05T03:14:45.420Z,5.70
2019-05-05T03:17:15.234Z,5.70
2019-05-05T03:19:44.537Z,5.50
2019-05-05T03:22:14.364Z,5.50
2019-05-05T03:24:44.649Z,5.30
2019-05-05T03:27:14.312Z,5.30
2019-05-05T03:29:44.218Z,5.40
2019-05-05T03:32:16.027Z,5.40
2019-05-05T03:34:44.502Z,5.40
2019-05-05T03:37:14.636Z,5.50
2019-05-05T03:39:45.486Z,5.60
2019-05-05T03:42:28.181Z,5.50
2019-05-05T03:44:58.047Z,5.40
2019-05-05T03:47:27.712Z,5.40
2019-05-05T03:49:56.806Z,5.50
2019-05-05T03:52:25.856Z,5.60
2019-05-05T03:54:54.911Z,5.90
2019-05-05T03:57:24.583Z,6.00
2019-05-05T03:59:54.733Z,6.20
2019-05-05T04:02:34.441Z,6.40
2019-05-05T04:05:11.205Z,6.50
2019-05-05T04:07:40.357Z,6.70
2019-05-05T04:10:09.553Z,6.60
2019-05-05T04:12:39.400Z,6.50
2019-05-05T04:15:08.155Z,6.40
2019-05-05T04:17:50.290Z,6.40
2019-05-05T04:20:20.700Z,6.50
2019-05-05T04:22:49.407Z,6.40
2019-05-05T04:25:18.154Z,6.40
2019-05-05T04:27:46.838Z,6.40
2019-05-05T04:30:16.084Z,6.50
2019-05-05T04:32:44.765Z,6.50
2019-05-05T04:35:14.183Z,6.50
2019-05-05T04:37:43.861Z,6.60
2019-05-05T04:40:14.779Z,6.70
2019-05-05T04:42:44.127Z,6.70
2019-05-05T04:45:14.785Z,6.90
2019-05-05T04:47:45.449Z,6.60
2019-05-05T04:50:25.105Z,6.80
2019-05-05T04:52:55.391Z,7.00
2019-05-05T04:55:24.524Z,7.10
2019-05-05T04:57:54.047Z,7.10
2019-05-05T05:00:24.180Z,7.00
2019-05-05T05:03:09.805Z,7.20
2019-05-05T05:05:53.616Z,7.20
2019-05-05T05:08:24.609Z,7.20
2019-05-05T05:10:54.261Z,7.40
2019-05-05T05:13:24.473Z,7.70
2019-05-05T05:15:53.959Z,7.70
2019-05-05T05:18:23.999Z,7.70
2019-05-05T05:20:54.903Z,7.70
2019-05-05T05:23:24.639Z,7.70
2019-05-05T05:25:54.423Z,7.80
2019-05-05T05:28:23.720Z,7.90
2019-05-05T05:30:54.504Z,8.10
2019-05-05T05:33:23.838Z,8.00
2019-05-05T05:35:54.682Z,8.00
2019-05-05T05:38:24.295Z,7.90
2019-05-05T05:40:54.876Z,8.10
2019-05-05T05:43:25.445Z,8.30
2019-05-05T05:45:55.987Z,8.30
2019-05-05T05:48:26.352Z,8.30
2019-05-05T05:50:59.509Z,8.00
2019-05-05T05:53:28.185Z,7.80
2019-05-05T05:55:59.666Z,7.80
2019-05-05T05:58:28.405Z,7.70
2019-05-05T06:00:57.939Z,7.70
2019-05-05T06:03:29.799Z,7.70
2019-05-05T06:05:58.997Z,7.70
2019-05-05T06:08:29.924Z,7.80
2019-05-05T06:10:58.324Z,7.70
2019-05-05T06:13:27.077Z,7.70
2019-05-05T06:15:55.802Z,7.60
2019-05-05T06:18:24.609Z,7.60
2019-05-05T06:20:53.967Z,7.80
2019-05-05T06:23:23.979Z,7.80
2019-05-05T06:25:55.145Z,8.10
2019-05-05T06:28:23.805Z,8.00
2019-05-05T06:30:54.643Z,8.10
2019-05-05T06:33:25.869Z,8.30
2019-05-05T06:35:54.819Z,8.20
2019-05-05T06:38:24.167Z,8.30
2019-05-05T06:41:14.694Z,8.30
2019-05-05T06:44:03.552Z,8.50
2019-05-05T06:46:49.713Z,8.70
2019-05-05T06:49:18.505Z,8.90
2019-05-05T06:51:47.290Z,9.00
2019-05-05T06:54:16.049Z,9.30
2019-05-05T06:56:44.866Z,9.40
2019-05-05T06:59:15.383Z,9.40
2019-05-05T07:01:44.328Z,9.40
2019-05-05T07:04:13.960Z,9.40
2019-05-05T07:06:53.446Z,9.40
2019-05-05T07:09:14.675Z,9.40
2019-05-05T07:11:43.750Z,9.30
2019-05-05T07:14:14.272Z,9.20
2019-05-05T07:16:43.854Z,9.40
2019-05-05T07:19:14.582Z,9.60
2019-05-05T07:21:43.635Z,9.70
2019-05-05T07:24:14.359Z,9.90
2019-05-05T07:26:44.660Z,10.10
2019-05-05T07:29:16.378Z,10.10
2019-05-05T07:31:44.080Z,10.10
2019-05-05T07:34:14.301Z,10.20
2019-05-05T07:36:44.728Z,10.30
2019-05-05T07:39:17.209Z,10.30
2019-05-05T07:41:45.218Z,10.40
2019-05-05T07:44:25.791Z,10.50
2019-05-05T07:46:44.490Z,10.60
2019-05-05T07:49:14.006Z,10.70
2019-05-05T07:51:44.198Z,10.90
2019-05-05T07:54:14.484Z,11.10
2019-05-05T07:56:44.425Z,11.10
2019-05-05T07:59:14.570Z,11.10
2019-05-05T08:01:46.511Z,11.20
2019-05-05T08:04:14.303Z,11.50
2019-05-05T08:06:44.520Z,11.70
2019-05-05T08:09:15.639Z,11.80
2019-05-05T08:11:54.177Z,12.10
2019-05-05T08:14:24.883Z,12.40
2019-05-05T08:17:05.691Z,12.50
2019-05-05T08:19:43.903Z,12.40
2019-05-05T08:22:16.983Z,12.50
2019-05-05T08:25:08.281Z,12.80
2019-05-05T08:27:46.242Z,13.20
2019-05-05T08:30:33.669Z,13.50
2019-05-05T08:33:06.789Z,13.70
2019-05-05T08:35:39.806Z,13.70
2019-05-05T08:38:10.974Z,13.80
2019-05-05T08:40:40.145Z,13.80
2019-05-05T08:43:09.834Z,13.90
2019-05-05T08:45:44.223Z,13.80
2019-05-05T08:48:14.209Z,13.70
2019-05-05T08:50:44.392Z,13.50
2019-05-05T08:53:13.867Z,13.70
2019-05-05T08:55:46.423Z,13.90
2019-05-05T08:58:17.335Z,13.80
2019-05-05T09:00:49.291Z,13.60
2019-05-05T09:03:24.298Z,13.00
2019-05-05T09:05:54.638Z,12.10
2019-05-05T09:08:24.233Z,11.00
2019-05-05T09:10:55.259Z,9.70
2019-05-05T09:13:27.333Z,9.00
2019-05-05T09:15:57.056Z,8.00
2019-05-05T09:18:26.300Z,7.50
2019-05-05T09:20:56.729Z,7.20
2019-05-05T09:23:26.218Z,7.20
2019-05-05T09:26:01.112Z,7.00
2019-05-05T09:28:38.011Z,7.00
2019-05-05T09:31:06.904Z,7.10
2019-05-05T09:33:36.833Z,7.40
2019-05-05T09:36:09.998Z,7.70
2019-05-05T09:38:39.819Z,8.00
2019-05-05T09:41:10.601Z,8.30
2019-05-05T09:43:40.469Z,8.60
2019-05-05T09:46:10.934Z,8.90
2019-05-05T09:48:40.503Z,9.40
2019-05-05T09:51:10.212Z,9.90
2019-05-05T09:53:40.878Z,10.30
2019-05-05T09:56:12.105Z,10.50
2019-05-05T09:59:00.843Z,10.80
2019-05-05T10:01:34.471Z,11.50
2019-05-05T10:04:13.834Z,12.50
2019-05-05T10:06:47.781Z,13.70
2019-05-05T10:09:21.506Z,14.80
2019-05-05T10:11:50.674Z,16.30
2019-05-05T10:14:20.409Z,17.60
2019-05-05T10:16:54.056Z,18.60
2019-05-05T10:19:24.896Z,19.50
2019-05-05T10:21:53.706Z,20.10
2019-05-05T10:24:30.677Z,21.40
2019-05-05T10:26:58.608Z,22.30
2019-05-05T10:29:26.666Z,21.20
2019-05-05T10:31:56.547Z,21.90
2019-05-05T10:34:25.454Z,21.90
2019-05-05T10:36:54.323Z,22.50
2019-05-05T10:39:27.608Z,21.60
2019-05-05T10:41:57.142Z,19.80
2019-05-05T10:44:25.936Z,18.90
2019-05-05T10:46:54.823Z,17.70
2019-05-05T10:49:24.427Z,17.60
2019-05-05T10:51:54.317Z,17.30
2019-05-05T10:54:23.759Z,16.20
2019-05-05T10:56:52.847Z,14.10
2019-05-05T10:59:23.680Z,12.80
2019-05-05T11:01:53.776Z,12.00
2019-05-05T11:04:24.359Z,11.60
2019-05-05T11:06:54.632Z,11.00
2019-05-05T11:09:24.390Z,10.70
2019-05-05T11:11:53.581Z,10.30
2019-05-05T11:14:22.344Z,9.90
2019-05-05T11:16:55.133Z,9.80
2019-05-05T11:19:24.223Z,9.80
2019-05-05T11:21:53.994Z,9.90
2019-05-05T11:24:23.983Z,10.20
2019-05-05T11:26:53.998Z,10.40
2019-05-05T11:29:24.093Z,10.80
2019-05-05T11:31:54.615Z,11.20
2019-05-05T11:34:25.042Z,11.60
2019-05-05T11:36:55.496Z,13.90
2019-05-05T11:39:24.360Z,17.50
2019-05-05T11:41:54.773Z,20.10
2019-05-05T11:44:24.291Z,21.50
2019-05-05T11:46:54.709Z,22.10
2019-05-05T11:49:24.498Z,24.70
2019-05-05T11:51:54.356Z,24.20
2019-05-05T11:54:24.577Z,24.80
2019-05-05T11:56:54.035Z,25.40
2019-05-05T11:59:23.717Z,26.10
2019-05-05T12:01:54.882Z,27.50
2019-05-05T12:04:24.051Z,26.70
2019-05-05T12:06:53.085Z,24.90
2019-05-05T12:09:24.744Z,22.10
2019-05-05T12:11:54.527Z,19.90
2019-05-05T12:14:27.257Z,18.00
2019-05-05T12:16:55.590Z,16.60
2019-05-05T12:19:24.540Z,15.80
2019-05-05T12:21:54.814Z,15.80
2019-05-05T12:24:25.379Z,15.40
2019-05-05T12:26:58.781Z,15.50
2019-05-05T12:29:27.763Z,17.00
2019-05-05T12:31:56.535Z,18.30
2019-05-05T12:34:25.262Z,19.20
2019-05-05T12:36:54.178Z,20.90
2019-05-05T12:39:23.027Z,23.10
2019-05-05T12:41:54.087Z,24.50
2019-05-05T12:44:23.854Z,25.10
2019-05-05T12:47:06.284Z,23.90
2019-05-05T12:49:35.176Z,22.90
2019-05-05T12:52:04.641Z,21.40
2019-05-05T12:54:33.781Z,20.50
2019-05-05T12:57:04.418Z,19.40
2019-05-05T12:59:33.857Z,18.00
2019-05-05T13:02:03.851Z,18.20
2019-05-05T13:04:33.922Z,17.80
2019-05-05T13:07:04.971Z,17.20
2019-05-05T13:09:33.776Z,17.90
2019-05-05T13:12:04.374Z,19.40
2019-05-05T13:14:33.593Z,22.60
2019-05-05T13:17:03.637Z,24.00
2019-05-05T13:19:39.989Z,23.30
2019-05-05T13:22:12.989Z,21.80
2019-05-05T13:24:49.575Z,21.50
2019-05-05T13:27:24.868Z,20.40
2019-05-05T13:29:53.693Z,19.40
2019-05-05T13:32:24.702Z,18.70
2019-05-05T13:34:54.544Z,18.20
2019-05-05T13:37:24.459Z,18.10
2019-05-05T13:39:54.356Z,18.30
2019-05-05T13:42:24.358Z,20.10
2019-05-05T13:44:55.006Z,22.20
2019-05-05T13:47:23.940Z,21.30
2019-05-05T13:49:54.630Z,22.30
2019-05-05T13:52:24.405Z,24.00
2019-05-05T13:54:54.356Z,24.30
2019-05-05T13:57:24.601Z,23.90
2019-05-05T13:59:54.534Z,23.60
2019-05-05T14:02:24.461Z,24.50
2019-05-05T14:04:54.221Z,25.40
2019-05-05T14:07:24.001Z,24.20
2019-05-05T14:09:54.794Z,24.30
2019-05-05T14:12:24.034Z,22.80
2019-05-05T14:14:54.601Z,22.00
2019-05-05T14:17:23.587Z,20.70
2019-05-05T14:20:04.550Z,19.50
2019-05-05T14:22:24.234Z,18.40
2019-05-05T14:25:00.703Z,17.40
2019-05-05T14:27:29.462Z,17.90
2019-05-05T14:30:16.376Z,19.50
2019-05-05T14:32:46.527Z,21.60
2019-05-05T14:35:34.244Z,22.50
2019-05-05T14:38:07.809Z,23.20
2019-05-05T14:40:36.662Z,23.30
2019-05-05T14:43:05.432Z,22.00
2019-05-05T14:45:34.325Z,20.40
2019-05-05T14:48:03.937Z,19.40
2019-05-05T14:50:34.597Z,20.30
2019-05-05T14:53:04.072Z,21.90
2019-05-05T14:55:33.612Z,21.90
2019-05-05T14:58:03.989Z,22.40
2019-05-05T15:00:33.660Z,22.70
2019-05-05T15:03:03.713Z,22.90
2019-05-05T15:05:37.324Z,22.90
2019-05-05T15:08:16.764Z,23.60
2019-05-05T15:11:03.720Z,23.00
2019-05-05T15:13:33.640Z,22.00
2019-05-05T15:16:03.984Z,22.00
2019-05-05T15:18:34.580Z,22.10
2019-05-05T15:21:03.519Z,22.10
2019-05-05T15:23:34.363Z,22.70
2019-05-05T15:26:04.473Z,22.10
2019-05-05T15:28:33.738Z,22.00
2019-05-05T15:31:02.793Z,21.80
2019-05-05T15:33:33.506Z,22.20
2019-05-05T15:36:04.269Z,22.20
2019-05-05T15:38:34.698Z,22.40
2019-05-05T15:41:03.948Z,21.80
2019-05-05T15:43:33.538Z,21.10
2019-05-05T15:46:04.274Z,20.50
2019-05-05T15:48:33.674Z,20.10
2019-05-05T15:51:04.200Z,20.30
2019-05-05T15:53:33.378Z,20.30
2019-05-05T15:56:04.363Z,20.50
2019-05-05T15:58:34.289Z,20.70
2019-05-05T16:01:04.073Z,21.40
2019-05-05T16:03:33.252Z,22.10
2019-05-05T16:06:03.773Z,22.20
2019-05-05T16:08:34.013Z,21.60
2019-05-05T16:11:03.909Z,21.10
2019-05-05T16:13:35.273Z,21.10
2019-05-05T16:16:09.578Z,21.30
2019-05-05T16:18:40.688Z,21.30
2019-05-05T16:21:11.870Z,21.20
2019-05-05T16:23:46.051Z,21.30
2019-05-05T16:26:15.223Z,21.20
2019-05-05T16:28:44.646Z,21.60
2019-05-05T16:31:14.551Z,21.70
2019-05-05T16:33:44.185Z,21.30
2019-05-05T16:36:13.788Z,21.30
2019-05-05T16:38:44.016Z,21.20
2019-05-05T16:41:13.625Z,21.20
2019-05-05T16:43:44.279Z,21.20
2019-05-05T16:46:16.740Z,21.00
2019-05-05T16:48:44.012Z,21.00
2019-05-05T16:51:14.597Z,20.50
2019-05-05T16:53:43.362Z,19.90
2019-05-05T16:56:16.456Z,19.40
2019-05-05T16:58:45.302Z,19.00
2019-05-05T17:01:15.764Z,18.90
2019-05-05T17:03:45.891Z,18.90
2019-05-05T17:06:14.883Z,19.20
2019-05-05T17:08:44.927Z,19.50
2019-05-05T17:11:15.791Z,19.90
2019-05-05T17:13:46.596Z,20.10
2019-05-05T17:16:19.892Z,20.10
2019-05-05T17:18:50.314Z,20.20
2019-05-05T17:21:23.546Z,20.40
2019-05-05T17:23:54.075Z,20.00
2019-05-05T17:26:27.405Z,20.10
2019-05-05T17:29:00.646Z,20.10
2019-05-05T17:31:33.866Z,20.00
2019-05-05T17:34:05.982Z,19.20
2019-05-05T17:36:34.890Z,18.90
2019-05-05T17:39:10.937Z,18.50
2019-05-05T17:41:47.767Z,18.50
2019-05-05T17:44:35.145Z,18.30
2019-05-05T17:47:16.621Z,17.90
2019-05-05T17:49:56.796Z,17.40
2019-05-05T17:52:41.324Z,17.10
2019-05-05T17:55:29.985Z,16.80
2019-05-05T17:58:02.650Z,16.60
2019-05-05T18:00:34.285Z,16.40
2019-05-05T18:03:04.290Z,16.40
2019-05-05T18:05:54.493Z,16.30
2019-05-05T18:08:44.523Z,16.10
2019-05-05T18:11:27.808Z,15.90
2019-05-05T18:14:19.227Z,15.60
2019-05-05T18:17:00.877Z,15.00
2019-05-05T18:19:35.342Z,14.20
2019-05-05T18:22:19.891Z,13.60
2019-05-05T18:24:53.843Z,13.30
2019-05-05T18:27:26.550Z,13.00
2019-05-05T18:29:56.167Z,12.70
2019-05-05T18:32:31.321Z,12.50
2019-05-05T18:35:06.117Z,12.10
2019-05-05T18:37:35.229Z,11.60
2019-05-05T18:40:14.448Z,11.20
2019-05-05T18:42:44.547Z,11.30
2019-05-05T18:45:18.808Z,11.20
2019-05-05T18:47:48.480Z,11.00
2019-05-05T18:50:17.659Z,10.90
2019-05-05T18:52:49.540Z,11.00
2019-05-05T18:55:20.160Z,10.90
2019-05-05T18:57:49.378Z,10.80
2019-05-05T19:00:20.037Z,10.40
2019-05-05T19:02:53.567Z,10.40
2019-05-05T19:05:27.952Z,10.20
2019-05-05T19:08:01.308Z,10.00
2019-05-05T19:10:30.184Z,9.90
2019-05-05T19:12:58.998Z,9.80
2019-05-05T19:15:30.389Z,9.90
2019-05-05T19:17:59.226Z,9.90
2019-05-05T19:20:47.873Z,9.90
2019-05-05T19:23:22.811Z,9.80
2019-05-05T19:25:55.805Z,9.70
2019-05-05T19:28:46.929Z,9.70
2019-05-05T19:31:14.460Z,9.50
2019-05-05T19:33:44.297Z,9.40
2019-05-05T19:36:13.263Z,9.30
2019-05-05T19:38:44.172Z,9.30
2019-05-05T19:41:14.411Z,9.20
2019-05-05T19:43:55.152Z,9.10
2019-05-05T19:46:44.002Z,9.20
2019-05-05T19:49:24.371Z,9.10
2019-05-05T19:51:55.188Z,8.90
2019-05-05T19:54:34.052Z,8.80
2019-05-05T19:57:03.797Z,8.90
2019-05-05T19:59:35.846Z,8.90
2019-05-05T20:02:06.465Z,8.80
2019-05-05T20:04:39.669Z,8.50
2019-05-05T20:07:13.805Z,8.60
2019-05-05T20:09:48.937Z,8.40
2019-05-05T20:12:23.941Z,8.40
2019-05-05T20:14:59.382Z,8.20
2019-05-05T20:17:36.179Z,8.20
2019-05-05T20:20:10.523Z,8.20
2019-05-05T20:22:44.430Z,8.10
2019-05-05T20:25:16.726Z,7.90
2019-05-05T20:27:51.600Z,8.00
2019-05-05T20:30:25.958Z,7.90
2019-05-05T20:33:09.998Z,7.80
2019-05-05T20:35:47.807Z,7.90
2019-05-05T20:38:31.194Z,7.90
2019-05-05T20:41:20.395Z,8.00
2019-05-05T20:43:54.515Z,8.00
2019-05-05T20:46:27.319Z,7.90
2019-05-05T20:48:59.223Z,7.80
2019-05-05T20:51:33.991Z,7.60
2019-05-05T20:54:04.992Z,7.70
2019-05-05T20:56:38.676Z,7.70
2019-05-05T20:59:08.326Z,7.50
2019-05-05T21:01:43.896Z,7.40
2019-05-05T21:04:18.242Z,7.30
2019-05-05T21:06:54.991Z,7.30
2019-05-05T21:09:24.881Z,7.30
2019-05-05T21:11:56.432Z,7.40
2019-05-05T21:14:34.278Z,7.30
2019-05-05T21:17:03.880Z,7.10
2019-05-05T21:19:36.218Z,7.10
2019-05-05T21:22:28.897Z,7.20
2019-05-05T21:25:01.752Z,7.20
2019-05-05T21:27:34.119Z,7.10
2019-05-05T21:30:06.645Z,7.10
2019-05-05T21:32:40.007Z,7.20
2019-05-05T21:35:14.236Z,7.10
2019-05-05T21:37:44.725Z,7.00
2019-05-05T21:40:19.829Z,7.00
2019-05-05T21:42:49.551Z,7.00
2019-05-05T21:45:20.111Z,7.20
2019-05-05T21:47:49.631Z,7.20
2019-05-05T21:50:24.088Z,7.20
2019-05-05T21:53:04.475Z,7.10
2019-05-05T21:55:49.568Z,7.20
2019-05-05T21:58:27.649Z,7.10
2019-05-05T22:01:04.570Z,7.20
2019-05-05T22:03:40.395Z,6.90
2019-05-05T22:06:14.426Z,6.60
2019-05-05T22:08:48.127Z,6.50
2019-05-05T22:11:18.206Z,6.40
2019-05-05T22:13:50.524Z,6.20
2019-05-05T22:16:23.471Z,6.20
2019-05-05T22:18:55.058Z,6.20
2019-05-05T22:21:43.706Z,6.10
2019-05-05T22:24:17.665Z,6.00
2019-05-05T22:26:49.686Z,6.10
2019-05-05T22:29:20.389Z,6.10
2019-05-05T22:31:49.369Z,6.10
2019-05-05T22:34:18.363Z,6.20
2019-05-05T22:36:47.247Z,6.30
2019-05-05T22:39:17.127Z,6.30
2019-05-05T22:41:46.245Z,6.20
2019-05-05T22:44:15.025Z,6.10
2019-05-05T22:46:43.866Z,5.90
2019-05-05T22:49:14.755Z,5.90
2019-05-05T22:51:44.706Z,5.90
2019-05-05T22:54:15.045Z,5.90
2019-05-05T22:56:45.135Z,6.00
2019-05-05T22:59:14.233Z,6.10
2019-05-05T23:01:43.226Z,6.00
2019-05-05T23:04:28.365Z,6.00
2019-05-05T23:07:05.044Z,5.90
2019-05-05T23:09:34.064Z,5.90
2019-05-05T23:12:04.214Z,5.90
2019-05-05T23:14:34.318Z,5.80
2019-05-05T23:17:05.034Z,5.80
2019-05-05T23:19:35.663Z,5.70
2019-05-05T23:22:11.823Z,5.70
2019-05-05T23:24:44.958Z,5.80
2019-05-05T23:27:14.585Z,5.80
2019-05-05T23:29:44.625Z,5.90
2019-05-05T23:32:15.407Z,5.80
2019-05-05T23:34:44.509Z,5.80
2019-05-05T23:37:13.791Z,5.70
2019-05-05T23:39:42.763Z,5.60
2019-05-05T23:42:11.526Z,5.50
2019-05-05T23:44:40.414Z,5.60
2019-05-05T23:47:09.339Z,5.60
2019-05-05T23:49:38.088Z,5.50
2019-05-05T23:52:26.133Z,5.50
2019-05-05T23:54:54.825Z,5.60
2019-05-05T23:57:24.566Z,5.60
2019-05-05T23:59:53.824Z,5.60
